Shearwater, Canada
Current Conditions -  °F | °C
As of 8:26 PM on Wednesday 28 Jan 2015 (Local Time) from CYAW Reporting Station
Light Snow Light Snow  
Wind Chill:   Ceiling: 2800
Heat Index: 23°   Visibility: 12mi
Dew Point: 19°   Wind: 23mph
Humidity: 86%   Direction: 340°NNW
Pressure: 29.78"   Gusts: 32mph
Location:  44.63°N, 63.52°W
Report Text: CYAW 290026Z 34020G28KT 12SM -SN SCT010 OVC028 M05/M07 A2978 RMK SC4SC4 DA-2138FT LAST OBS/NEXT 291200 UTC SLP088
Loading
Personal Weather Stations






























Interactive Weather Map New forecast layout! Learn more

10-Day Weather Forecast

Advertisements
Track Severe Weather on mobile